KHLB/HLB METAR and TAF weather

Enter ICAO airport designator
Station Type Date Time Source
KHLB METAR 2020/01/23 15:15 UTC NOAA

KHLB 231515Z AUTO 16005KT 10SM BKN090 03/M07 A3017 RMK A01


Station Type Date Time Source
KHLB Decoded METAR 2020/01/23 15:15 UTC NOAA

Station name not available
Jan 23, 2020 - 10:15 AM EST / 2020.01.23 1515 UTC
Wind: from the SSE (160 degrees) at 6 MPH (5 KT):0
Visibility: 10 mile(s):0
Sky conditions: mostly cloudy
Temperature: 37 F (3 C)
Dew Point: 19 F (-7 C)
Relative Humidity: 47%
Pressure (altimeter): 30.17 in. Hg (1021 hPa)
ob: KHLB 231515Z AUTO 16005KT 10SM BKN090 03/M07 A3017 RMK A01
cycle: 15

Station Type Date Time Source
KHLB TAF UTC NOAA

Error!

Example: see airport list